sensor_id;sensor_type;location;lat;lon;timestamp;P1;durP1;ratioP1;P2;durP2;ratioP2
48161;SDS011;33950;48.154;16.316;2022-11-11T00:01:47;21.23;;;9.35;;
48161;SDS011;33950;48.154;16.316;2022-11-11T00:04:34;25.55;;;9.73;;
48161;SDS011;33950;48.154;16.316;2022-11-11T00:07:21;19.02;;;9.27;;
48161;SDS011;33950;48.154;16.316;2022-11-11T00:10:07;20.60;;;8.77;;
48161;SDS011;33950;48.154;16.316;2022-11-11T00:12:57;14.25;;;7.32;;
48161;SDS011;33950;48.154;16.316;2022-11-11T00:15:43;15.80;;;7.57;;
48161;SDS011;33950;48.154;16.316;2022-11-11T00:18:29;11.07;;;7.35;;
48161;SDS011;33950;48.154;16.316;2022-11-11T00:21:34;16.20;;;8.02;;
48161;SDS011;33950;48.154;16.316;2022-11-11T00:24:40;22.23;;;8.73;;
48161;SDS011;33950;48.154;16.316;2022-11-11T00:27:45;18.67;;;8.00;;
48161;SDS011;33950;48.154;16.316;2022-11-11T00:30:31;18.70;;;8.07;;
48161;SDS011;33950;48.154;16.316;2022-11-11T00:33:17;14.98;;;7.55;;
48161;SDS011;33950;48.154;16.316;2022-11-11T00:36:04;12.20;;;7.78;;
48161;SDS011;33950;48.154;16.316;2022-11-11T00:38:50;15.00;;;8.38;;
48161;SDS011;33950;48.154;16.316;2022-11-11T00:41:41;18.55;;;7.85;;
48161;SDS011;33950;48.154;16.316;2022-11-11T00:44:27;13.40;;;7.95;;
48161;SDS011;33950;48.154;16.316;2022-11-11T00:47:13;18.42;;;8.50;;
48161;SDS011;33950;48.154;16.316;2022-11-11T00:50:18;15.90;;;7.65;;
48161;SDS011;33950;48.154;16.316;2022-11-11T00:53:25;23.08;;;7.18;;
48161;SDS011;33950;48.154;16.316;2022-11-11T00:56:12;21.42;;;6.80;;
48161;SDS011;33950;48.154;16.316;2022-11-11T00:59:00;20.55;;;7.97;;
48161;SDS011;33950;48.154;16.316;2022-11-11T01:01:47;14.63;;;7.65;;
48161;SDS011;33950;48.154;16.316;2022-11-11T01:04:33;18.00;;;7.45;;
48161;SDS011;33950;48.154;16.316;2022-11-11T01:07:19;20.75;;;7.93;;
48161;SDS011;33950;48.154;16.316;2022-11-11T01:10:05;16.13;;;7.95;;
48161;SDS011;33950;48.154;16.316;2022-11-11T01:12:52;26.02;;;8.13;;
48161;SDS011;33950;48.154;16.316;2022-11-11T01:15:59;17.35;;;8.20;;
48161;SDS011;33950;48.154;16.316;2022-11-11T01:18:46;14.85;;;8.27;;
48161;SDS011;33950;48.154;16.316;2022-11-11T01:21:32;19.73;;;8.18;;
48161;SDS011;33950;48.154;16.316;2022-11-11T01:24:18;14.68;;;8.05;;
48161;SDS011;33950;48.154;16.316;2022-11-11T01:27:05;14.82;;;8.07;;
48161;SDS011;33950;48.154;16.316;2022-11-11T01:29:51;19.45;;;7.60;;
48161;SDS011;33950;48.154;16.316;2022-11-11T01:32:38;16.73;;;7.93;;
48161;SDS011;33950;48.154;16.316;2022-11-11T01:35:24;15.18;;;8.40;;
48161;SDS011;33950;48.154;16.316;2022-11-11T01:38:10;18.55;;;7.93;;
48161;SDS011;33950;48.154;16.316;2022-11-11T01:40:57;21.67;;;9.20;;
48161;SDS011;33950;48.154;16.316;2022-11-11T01:43:43;16.88;;;8.45;;
48161;SDS011;33950;48.154;16.316;2022-11-11T01:46:30;16.98;;;9.13;;
48161;SDS011;33950;48.154;16.316;2022-11-11T01:49:26;14.23;;;9.50;;
48161;SDS011;33950;48.154;16.316;2022-11-11T01:52:15;14.95;;;8.77;;
48161;SDS011;33950;48.154;16.316;2022-11-11T01:55:05;18.15;;;9.30;;
48161;SDS011;33950;48.154;16.316;2022-11-11T01:57:56;13.15;;;6.82;;
48161;SDS011;33950;48.154;16.316;2022-11-11T02:00:46;13.50;;;7.75;;
48161;SDS011;33950;48.154;16.316;2022-11-11T02:03:32;26.67;;;8.52;;
48161;SDS011;33950;48.154;16.316;2022-11-11T02:06:25;15.50;;;8.85;;
48161;SDS011;33950;48.154;16.316;2022-11-11T02:09:13;15.93;;;8.75;;
48161;SDS011;33950;48.154;16.316;2022-11-11T02:12:00;18.88;;;9.35;;
48161;SDS011;33950;48.154;16.316;2022-11-11T02:15:09;16.42;;;8.07;;
48161;SDS011;33950;48.154;16.316;2022-11-11T02:17:57;27.45;;;9.80;;
48161;SDS011;33950;48.154;16.316;2022-11-11T02:20:44;15.25;;;9.13;;
48161;SDS011;33950;48.154;16.316;2022-11-11T02:23:31;12.52;;;8.07;;
48161;SDS011;33950;48.154;16.316;2022-11-11T02:26:23;18.25;;;9.02;;
48161;SDS011;33950;48.154;16.316;2022-11-11T02:29:10;20.30;;;8.10;;
48161;SDS011;33950;48.154;16.316;2022-11-11T02:31:59;15.60;;;8.45;;
48161;SDS011;33950;48.154;16.316;2022-11-11T02:34:45;17.63;;;9.10;;
48161;SDS011;33950;48.154;16.316;2022-11-11T02:37:31;16.40;;;8.48;;
48161;SDS011;33950;48.154;16.316;2022-11-11T02:40:18;24.05;;;9.05;;
48161;SDS011;33950;48.154;16.316;2022-11-11T02:43:09;14.25;;;8.00;;
48161;SDS011;33950;48.154;16.316;2022-11-11T02:45:55;18.85;;;8.48;;
48161;SDS011;33950;48.154;16.316;2022-11-11T02:48:41;17.13;;;8.43;;
48161;SDS011;33950;48.154;16.316;2022-11-11T02:51:27;13.40;;;7.82;;
48161;SDS011;33950;48.154;16.316;2022-11-11T02:54:13;16.23;;;8.57;;
48161;SDS011;33950;48.154;16.316;2022-11-11T02:56:59;17.83;;;8.77;;
48161;SDS011;33950;48.154;16.316;2022-11-11T02:59:53;19.80;;;9.25;;
48161;SDS011;33950;48.154;16.316;2022-11-11T03:02:39;16.98;;;9.10;;
48161;SDS011;33950;48.154;16.316;2022-11-11T03:05:25;13.00;;;8.27;;
48161;SDS011;33950;48.154;16.316;2022-11-11T03:08:12;17.67;;;9.13;;
48161;SDS011;33950;48.154;16.316;2022-11-11T03:10:58;17.67;;;8.38;;
48161;SDS011;33950;48.154;16.316;2022-11-11T03:13:44;19.33;;;8.98;;
48161;SDS011;33950;48.154;16.316;2022-11-11T03:16:31;15.25;;;8.05;;
48161;SDS011;33950;48.154;16.316;2022-11-11T03:19:36;17.80;;;8.50;;
48161;SDS011;33950;48.154;16.316;2022-11-11T03:22:22;16.83;;;7.75;;
48161;SDS011;33950;48.154;16.316;2022-11-11T03:25:08;19.85;;;8.60;;
48161;SDS011;33950;48.154;16.316;2022-11-11T03:28:13;17.92;;;8.77;;
48161;SDS011;33950;48.154;16.316;2022-11-11T03:31:01;15.15;;;9.02;;
48161;SDS011;33950;48.154;16.316;2022-11-11T03:33:49;16.13;;;9.02;;
48161;SDS011;33950;48.154;16.316;2022-11-11T03:36:35;16.60;;;8.68;;
48161;SDS011;33950;48.154;16.316;2022-11-11T03:39:39;19.13;;;9.18;;
48161;SDS011;33950;48.154;16.316;2022-11-11T03:42:25;24.50;;;9.45;;
48161;SDS011;33950;48.154;16.316;2022-11-11T03:45:12;17.02;;;8.95;;
48161;SDS011;33950;48.154;16.316;2022-11-11T03:47:58;22.13;;;9.40;;
48161;SDS011;33950;48.154;16.316;2022-11-11T03:50:46;13.63;;;8.00;;
48161;SDS011;33950;48.154;16.316;2022-11-11T03:53:32;13.75;;;8.15;;
48161;SDS011;33950;48.154;16.316;2022-11-11T03:56:19;13.30;;;7.78;;
48161;SDS011;33950;48.154;16.316;2022-11-11T03:59:05;18.58;;;8.30;;
48161;SDS011;33950;48.154;16.316;2022-11-11T04:01:51;17.42;;;8.07;;
48161;SDS011;33950;48.154;16.316;2022-11-11T04:04:55;15.40;;;9.32;;
48161;SDS011;33950;48.154;16.316;2022-11-11T04:08:01;25.60;;;9.05;;
48161;SDS011;33950;48.154;16.316;2022-11-11T04:11:07;16.65;;;8.45;;
48161;SDS011;33950;48.154;16.316;2022-11-11T04:13:56;18.42;;;8.73;;
48161;SDS011;33950;48.154;16.316;2022-11-11T04:17:03;14.88;;;7.88;;
48161;SDS011;33950;48.154;16.316;2022-11-11T04:19:49;17.23;;;8.85;;
48161;SDS011;33950;48.154;16.316;2022-11-11T04:22:54;13.20;;;8.43;;
48161;SDS011;33950;48.154;16.316;2022-11-11T04:25:41;12.20;;;8.95;;
48161;SDS011;33950;48.154;16.316;2022-11-11T04:28:33;15.00;;;8.82;;
48161;SDS011;33950;48.154;16.316;2022-11-11T04:31:38;19.17;;;8.00;;
48161;SDS011;33950;48.154;16.316;2022-11-11T04:34:44;15.10;;;8.05;;
48161;SDS011;33950;48.154;16.316;2022-11-11T04:37:33;16.65;;;7.55;;
48161;SDS011;33950;48.154;16.316;2022-11-11T04:40:21;13.68;;;6.63;;
48161;SDS011;33950;48.154;16.316;2022-11-11T04:43:27;12.27;;;6.63;;
48161;SDS011;33950;48.154;16.316;2022-11-11T04:46:13;11.15;;;6.53;;
48161;SDS011;33950;48.154;16.316;2022-11-11T04:48:59;16.33;;;8.70;;
48161;SDS011;33950;48.154;16.316;2022-11-11T04:51:45;20.25;;;8.95;;
48161;SDS011;33950;48.154;16.316;2022-11-11T04:54:50;16.95;;;9.15;;
48161;SDS011;33950;48.154;16.316;2022-11-11T04:57:54;16.63;;;8.20;;
48161;SDS011;33950;48.154;16.316;2022-11-11T05:00:42;20.33;;;8.93;;
48161;SDS011;33950;48.154;16.316;2022-11-11T05:03:28;15.82;;;8.55;;
48161;SDS011;33950;48.154;16.316;2022-11-11T05:06:14;14.73;;;7.68;;
48161;SDS011;33950;48.154;16.316;2022-11-11T05:09:18;18.90;;;8.02;;
48161;SDS011;33950;48.154;16.316;2022-11-11T05:12:05;16.42;;;8.90;;
48161;SDS011;33950;48.154;16.316;2022-11-11T05:14:51;12.95;;;7.80;;
48161;SDS011;33950;48.154;16.316;2022-11-11T05:17:57;18.98;;;9.25;;
48161;SDS011;33950;48.154;16.316;2022-11-11T05:21:03;18.60;;;8.57;;
48161;SDS011;33950;48.154;16.316;2022-11-11T05:24:06;19.10;;;9.50;;
48161;SDS011;33950;48.154;16.316;2022-11-11T05:27:10;23.15;;;10.65;;
48161;SDS011;33950;48.154;16.316;2022-11-11T05:29:56;14.23;;;8.82;;
48161;SDS011;33950;48.154;16.316;2022-11-11T05:32:43;19.58;;;9.40;;
48161;SDS011;33950;48.154;16.316;2022-11-11T05:35:30;14.30;;;8.07;;
48161;SDS011;33950;48.154;16.316;2022-11-11T05:38:16;18.77;;;9.15;;
48161;SDS011;33950;48.154;16.316;2022-11-11T05:41:05;18.08;;;9.68;;
48161;SDS011;33950;48.154;16.316;2022-11-11T05:43:52;19.00;;;9.48;;
48161;SDS011;33950;48.154;16.316;2022-11-11T05:46:38;20.75;;;9.98;;
48161;SDS011;33950;48.154;16.316;2022-11-11T05:49:25;19.08;;;9.75;;
48161;SDS011;33950;48.154;16.316;2022-11-11T05:52:13;18.73;;;9.73;;
48161;SDS011;33950;48.154;16.316;2022-11-11T05:55:00;24.08;;;9.73;;
48161;SDS011;33950;48.154;16.316;2022-11-11T05:57:46;24.17;;;10.52;;
48161;SDS011;33950;48.154;16.316;2022-11-11T06:00:32;16.27;;;9.85;;
48161;SDS011;33950;48.154;16.316;2022-11-11T06:03:19;15.88;;;9.65;;
48161;SDS011;33950;48.154;16.316;2022-11-11T06:06:05;14.93;;;8.05;;
48161;SDS011;33950;48.154;16.316;2022-11-11T06:08:52;26.70;;;10.43;;
48161;SDS011;33950;48.154;16.316;2022-11-11T06:11:39;26.00;;;11.00;;
48161;SDS011;33950;48.154;16.316;2022-11-11T06:14:25;18.30;;;9.02;;
48161;SDS011;33950;48.154;16.316;2022-11-11T06:17:11;20.30;;;10.18;;
48161;SDS011;33950;48.154;16.316;2022-11-11T06:19:57;22.35;;;9.35;;
48161;SDS011;33950;48.154;16.316;2022-11-11T06:22:43;18.13;;;9.85;;
48161;SDS011;33950;48.154;16.316;2022-11-11T06:25:42;25.10;;;10.23;;
48161;SDS011;33950;48.154;16.316;2022-11-11T06:28:47;18.75;;;9.07;;
48161;SDS011;33950;48.154;16.316;2022-11-11T06:31:34;31.80;;;10.85;;
48161;SDS011;33950;48.154;16.316;2022-11-11T06:34:20;32.33;;;11.20;;
48161;SDS011;33950;48.154;16.316;2022-11-11T06:37:06;23.13;;;10.43;;
48161;SDS011;33950;48.154;16.316;2022-11-11T06:39:52;24.27;;;10.25;;
48161;SDS011;33950;48.154;16.316;2022-11-11T06:42:40;21.33;;;11.02;;
48161;SDS011;33950;48.154;16.316;2022-11-11T06:45:26;21.52;;;10.65;;
48161;SDS011;33950;48.154;16.316;2022-11-11T06:48:13;33.88;;;10.68;;
48161;SDS011;33950;48.154;16.316;2022-11-11T06:51:00;42.83;;;12.02;;
48161;SDS011;33950;48.154;16.316;2022-11-11T06:53:48;28.50;;;12.15;;
48161;SDS011;33950;48.154;16.316;2022-11-11T06:56:34;25.90;;;11.60;;
48161;SDS011;33950;48.154;16.316;2022-11-11T06:59:21;23.40;;;10.52;;
48161;SDS011;33950;48.154;16.316;2022-11-11T07:02:08;22.13;;;11.02;;
48161;SDS011;33950;48.154;16.316;2022-11-11T07:04:58;22.70;;;11.15;;
48161;SDS011;33950;48.154;16.316;2022-11-11T07:07:44;21.40;;;12.65;;
48161;SDS011;33950;48.154;16.316;2022-11-11T07:10:30;60.17;;;26.05;;
48161;SDS011;33950;48.154;16.316;2022-11-11T07:13:18;26.00;;;13.00;;
48161;SDS011;33950;48.154;16.316;2022-11-11T07:16:06;26.63;;;12.32;;
48161;SDS011;33950;48.154;16.316;2022-11-11T07:18:52;21.23;;;11.70;;
48161;SDS011;33950;48.154;16.316;2022-11-11T07:21:38;20.50;;;11.35;;
48161;SDS011;33950;48.154;16.316;2022-11-11T07:24:24;22.30;;;11.93;;
48161;SDS011;33950;48.154;16.316;2022-11-11T07:27:10;23.17;;;10.98;;
48161;SDS011;33950;48.154;16.316;2022-11-11T07:29:56;21.20;;;10.40;;
48161;SDS011;33950;48.154;16.316;2022-11-11T07:32:44;26.00;;;11.45;;
48161;SDS011;33950;48.154;16.316;2022-11-11T07:35:31;30.17;;;11.45;;
48161;SDS011;33950;48.154;16.316;2022-11-11T07:38:17;27.33;;;12.45;;
48161;SDS011;33950;48.154;16.316;2022-11-11T07:41:03;31.23;;;12.88;;
48161;SDS011;33950;48.154;16.316;2022-11-11T07:43:49;34.40;;;14.00;;
48161;SDS011;33950;48.154;16.316;2022-11-11T07:46:36;31.02;;;12.93;;
48161;SDS011;33950;48.154;16.316;2022-11-11T07:49:23;35.25;;;12.40;;
48161;SDS011;33950;48.154;16.316;2022-11-11T07:52:09;22.70;;;12.05;;
48161;SDS011;33950;48.154;16.316;2022-11-11T07:54:55;24.83;;;12.02;;
48161;SDS011;33950;48.154;16.316;2022-11-11T07:57:41;22.75;;;11.75;;
48161;SDS011;33950;48.154;16.316;2022-11-11T08:00:27;23.08;;;11.27;;
48161;SDS011;33950;48.154;16.316;2022-11-11T08:03:13;24.88;;;12.52;;
48161;SDS011;33950;48.154;16.316;2022-11-11T08:06:02;28.67;;;12.80;;
48161;SDS011;33950;48.154;16.316;2022-11-11T08:08:48;29.40;;;13.45;;
48161;SDS011;33950;48.154;16.316;2022-11-11T08:11:34;32.00;;;14.68;;
48161;SDS011;33950;48.154;16.316;2022-11-11T08:14:39;37.40;;;13.90;;
48161;SDS011;33950;48.154;16.316;2022-11-11T08:17:25;31.40;;;14.43;;
48161;SDS011;33950;48.154;16.316;2022-11-11T08:20:12;36.00;;;15.50;;
48161;SDS011;33950;48.154;16.316;2022-11-11T08:22:59;43.63;;;17.33;;
48161;SDS011;33950;48.154;16.316;2022-11-11T08:25:48;40.80;;;16.08;;
48161;SDS011;33950;48.154;16.316;2022-11-11T08:28:34;41.78;;;16.17;;
48161;SDS011;33950;48.154;16.316;2022-11-11T08:31:20;34.28;;;15.52;;
48161;SDS011;33950;48.154;16.316;2022-11-11T08:34:06;35.80;;;14.70;;
48161;SDS011;33950;48.154;16.316;2022-11-11T08:36:53;23.10;;;12.65;;
48161;SDS011;33950;48.154;16.316;2022-11-11T08:39:40;31.55;;;13.80;;
48161;SDS011;33950;48.154;16.316;2022-11-11T08:42:26;24.02;;;12.80;;
48161;SDS011;33950;48.154;16.316;2022-11-11T08:45:12;25.58;;;12.15;;
48161;SDS011;33950;48.154;16.316;2022-11-11T08:47:58;23.90;;;12.73;;
48161;SDS011;33950;48.154;16.316;2022-11-11T08:50:45;24.98;;;11.85;;
48161;SDS011;33950;48.154;16.316;2022-11-11T08:53:31;22.60;;;11.65;;
48161;SDS011;33950;48.154;16.316;2022-11-11T08:56:18;26.10;;;12.52;;
48161;SDS011;33950;48.154;16.316;2022-11-11T08:59:04;27.27;;;13.32;;
48161;SDS011;33950;48.154;16.316;2022-11-11T09:01:51;30.65;;;13.93;;
48161;SDS011;33950;48.154;16.316;2022-11-11T09:04:37;29.30;;;12.63;;
48161;SDS011;33950;48.154;16.316;2022-11-11T09:07:23;25.95;;;11.63;;
48161;SDS011;33950;48.154;16.316;2022-11-11T09:10:10;25.73;;;12.57;;
48161;SDS011;33950;48.154;16.316;2022-11-11T09:12:58;18.00;;;10.75;;
48161;SDS011;33950;48.154;16.316;2022-11-11T09:15:44;20.63;;;11.07;;
48161;SDS011;33950;48.154;16.316;2022-11-11T09:18:31;24.45;;;10.50;;
48161;SDS011;33950;48.154;16.316;2022-11-11T09:21:17;25.80;;;11.02;;
48161;SDS011;33950;48.154;16.316;2022-11-11T09:24:04;21.40;;;11.02;;
48161;SDS011;33950;48.154;16.316;2022-11-11T09:26:50;23.23;;;11.45;;
48161;SDS011;33950;48.154;16.316;2022-11-11T09:29:38;21.02;;;11.30;;
48161;SDS011;33950;48.154;16.316;2022-11-11T09:32:24;24.20;;;11.82;;
48161;SDS011;33950;48.154;16.316;2022-11-11T09:35:10;21.75;;;12.18;;
48161;SDS011;33950;48.154;16.316;2022-11-11T09:37:57;28.60;;;13.82;;
48161;SDS011;33950;48.154;16.316;2022-11-11T09:40:47;25.77;;;13.15;;
48161;SDS011;33950;48.154;16.316;2022-11-11T09:43:42;28.42;;;12.85;;
48161;SDS011;33950;48.154;16.316;2022-11-11T09:46:35;27.50;;;14.27;;
48161;SDS011;33950;48.154;16.316;2022-11-11T09:49:36;31.10;;;15.55;;
48161;SDS011;33950;48.154;16.316;2022-11-11T09:52:31;27.98;;;14.75;;
48161;SDS011;33950;48.154;16.316;2022-11-11T09:55:22;23.73;;;13.87;;
48161;SDS011;33950;48.154;16.316;2022-11-11T09:58:11;31.20;;;14.57;;
48161;SDS011;33950;48.154;16.316;2022-11-11T10:01:04;27.50;;;13.35;;
48161;SDS011;33950;48.154;16.316;2022-11-11T10:03:58;22.45;;;11.50;;
48161;SDS011;33950;48.154;16.316;2022-11-11T10:06:49;29.08;;;13.32;;
48161;SDS011;33950;48.154;16.316;2022-11-11T10:09:42;65.90;;;23.45;;
48161;SDS011;33950;48.154;16.316;2022-11-11T10:12:34;62.65;;;22.65;;
48161;SDS011;33950;48.154;16.316;2022-11-11T10:15:33;29.38;;;13.55;;
48161;SDS011;33950;48.154;16.316;2022-11-11T10:18:32;33.10;;;14.23;;
48161;SDS011;33950;48.154;16.316;2022-11-11T10:21:29;31.30;;;15.63;;
48161;SDS011;33950;48.154;16.316;2022-11-11T10:24:22;18.02;;;10.70;;
48161;SDS011;33950;48.154;16.316;2022-11-11T10:27:19;28.00;;;12.77;;
48161;SDS011;33950;48.154;16.316;2022-11-11T10:30:07;27.00;;;12.70;;
48161;SDS011;33950;48.154;16.316;2022-11-11T10:33:03;19.80;;;11.10;;
48161;SDS011;33950;48.154;16.316;2022-11-11T10:35:54;26.33;;;11.75;;
48161;SDS011;33950;48.154;16.316;2022-11-11T10:38:48;34.00;;;12.48;;
48161;SDS011;33950;48.154;16.316;2022-11-11T10:41:41;23.15;;;11.45;;
48161;SDS011;33950;48.154;16.316;2022-11-11T10:44:31;30.33;;;11.88;;
48161;SDS011;33950;48.154;16.316;2022-11-11T10:47:24;26.10;;;13.13;;
48161;SDS011;33950;48.154;16.316;2022-11-11T10:50:25;20.48;;;10.98;;
48161;SDS011;33950;48.154;16.316;2022-11-11T10:56:08;20.80;;;10.55;;
48161;SDS011;33950;48.154;16.316;2022-11-11T10:59:04;20.17;;;10.23;;
48161;SDS011;33950;48.154;16.316;2022-11-11T11:01:56;17.98;;;9.88;;
48161;SDS011;33950;48.154;16.316;2022-11-11T11:04:47;21.77;;;10.95;;
48161;SDS011;33950;48.154;16.316;2022-11-11T11:07:38;14.55;;;8.63;;
48161;SDS011;33950;48.154;16.316;2022-11-11T11:10:29;24.38;;;8.60;;
48161;SDS011;33950;48.154;16.316;2022-11-11T11:13:22;19.23;;;8.77;;
48161;SDS011;33950;48.154;16.316;2022-11-11T11:16:15;15.20;;;8.02;;
48161;SDS011;33950;48.154;16.316;2022-11-11T11:19:13;14.53;;;7.00;;
48161;SDS011;33950;48.154;16.316;2022-11-11T11:22:01;22.98;;;8.45;;
48161;SDS011;33950;48.154;16.316;2022-11-11T11:24:48;18.08;;;8.10;;
48161;SDS011;33950;48.154;16.316;2022-11-11T11:27:34;24.13;;;8.07;;
48161;SDS011;33950;48.154;16.316;2022-11-11T11:30:23;14.68;;;7.53;;
48161;SDS011;33950;48.154;16.316;2022-11-11T11:33:10;31.30;;;8.70;;
48161;SDS011;33950;48.154;16.316;2022-11-11T11:35:56;17.23;;;7.55;;
48161;SDS011;33950;48.154;16.316;2022-11-11T11:38:42;15.50;;;8.73;;
48161;SDS011;33950;48.154;16.316;2022-11-11T11:41:35;27.38;;;10.10;;
48161;SDS011;33950;48.154;16.316;2022-11-11T11:44:26;16.27;;;8.83;;
48161;SDS011;33950;48.154;16.316;2022-11-11T11:47:19;11.50;;;7.13;;
48161;SDS011;33950;48.154;16.316;2022-11-11T11:50:20;13.65;;;7.18;;
48161;SDS011;33950;48.154;16.316;2022-11-11T11:53:25;15.30;;;7.55;;
48161;SDS011;33950;48.154;16.316;2022-11-11T11:56:24;14.68;;;7.55;;
48161;SDS011;33950;48.154;16.316;2022-11-11T11:59:20;15.60;;;7.40;;
48161;SDS011;33950;48.154;16.316;2022-11-11T12:02:17;18.95;;;7.35;;
48161;SDS011;33950;48.154;16.316;2022-11-11T12:05:17;13.07;;;6.40;;
48161;SDS011;33950;48.154;16.316;2022-11-11T12:08:23;13.48;;;6.15;;
48161;SDS011;33950;48.154;16.316;2022-11-11T12:11:21;9.75;;;5.97;;
48161;SDS011;33950;48.154;16.316;2022-11-11T12:14:28;14.93;;;6.53;;
48161;SDS011;33950;48.154;16.316;2022-11-11T12:17:31;16.33;;;7.32;;
48161;SDS011;33950;48.154;16.316;2022-11-11T12:20:27;9.90;;;5.90;;
48161;SDS011;33950;48.154;16.316;2022-11-11T12:23:37;17.80;;;7.10;;
48161;SDS011;33950;48.154;16.316;2022-11-11T12:26:34;15.63;;;6.47;;
48161;SDS011;33950;48.154;16.316;2022-11-11T12:29:29;12.85;;;5.90;;
48161;SDS011;33950;48.154;16.316;2022-11-11T12:32:27;12.80;;;6.40;;
48161;SDS011;33950;48.154;16.316;2022-11-11T12:35:31;12.90;;;6.13;;
48161;SDS011;33950;48.154;16.316;2022-11-11T12:38:30;13.50;;;7.15;;
48161;SDS011;33950;48.154;16.316;2022-11-11T12:41:34;17.17;;;6.53;;
48161;SDS011;33950;48.154;16.316;2022-11-11T12:44:31;12.38;;;6.53;;
48161;SDS011;33950;48.154;16.316;2022-11-11T12:47:26;16.08;;;5.90;;
48161;SDS011;33950;48.154;16.316;2022-11-11T12:50:21;19.17;;;6.68;;
48161;SDS011;33950;48.154;16.316;2022-11-11T12:53:14;17.90;;;6.28;;
48161;SDS011;33950;48.154;16.316;2022-11-11T12:56:10;15.52;;;6.20;;
48161;SDS011;33950;48.154;16.316;2022-11-11T12:59:08;14.90;;;6.28;;
48161;SDS011;33950;48.154;16.316;2022-11-11T13:02:02;10.48;;;6.13;;
48161;SDS011;33950;48.154;16.316;2022-11-11T13:05:05;12.30;;;6.55;;
48161;SDS011;33950;48.154;16.316;2022-11-11T13:08:11;12.15;;;5.88;;
48161;SDS011;33950;48.154;16.316;2022-11-11T13:11:13;16.13;;;5.60;;
48161;SDS011;33950;48.154;16.316;2022-11-11T13:14:10;19.67;;;5.70;;
48161;SDS011;33950;48.154;16.316;2022-11-11T13:17:20;12.50;;;5.35;;
48161;SDS011;33950;48.154;16.316;2022-11-11T13:20:12;7.88;;;5.22;;
48161;SDS011;33950;48.154;16.316;2022-11-11T13:23:07;12.95;;;4.72;;
48161;SDS011;33950;48.154;16.316;2022-11-11T13:25:56;14.90;;;4.82;;
48161;SDS011;33950;48.154;16.316;2022-11-11T13:28:47;8.23;;;4.45;;
48161;SDS011;33950;48.154;16.316;2022-11-11T13:31:34;7.90;;;4.80;;
48161;SDS011;33950;48.154;16.316;2022-11-11T13:34:23;10.10;;;4.93;;
48161;SDS011;33950;48.154;16.316;2022-11-11T13:37:17;11.80;;;4.65;;
48161;SDS011;33950;48.154;16.316;2022-11-11T13:40:08;9.55;;;4.85;;
48161;SDS011;33950;48.154;16.316;2022-11-11T13:43:15;12.07;;;4.47;;
48161;SDS011;33950;48.154;16.316;2022-11-11T13:46:06;11.15;;;4.55;;
48161;SDS011;33950;48.154;16.316;2022-11-11T13:49:19;11.10;;;5.05;;
48161;SDS011;33950;48.154;16.316;2022-11-11T13:52:17;10.45;;;4.80;;
48161;SDS011;33950;48.154;16.316;2022-11-11T13:55:07;15.95;;;5.13;;
48161;SDS011;33950;48.154;16.316;2022-11-11T13:58:05;11.70;;;4.32;;
48161;SDS011;33950;48.154;16.316;2022-11-11T14:01:04;14.55;;;4.82;;
48161;SDS011;33950;48.154;16.316;2022-11-11T14:03:59;11.70;;;5.05;;
48161;SDS011;33950;48.154;16.316;2022-11-11T14:06:51;14.18;;;5.38;;
48161;SDS011;33950;48.154;16.316;2022-11-11T14:09:58;9.20;;;5.25;;
48161;SDS011;33950;48.154;16.316;2022-11-11T14:12:47;10.98;;;5.07;;
48161;SDS011;33950;48.154;16.316;2022-11-11T14:15:39;15.93;;;5.07;;
48161;SDS011;33950;48.154;16.316;2022-11-11T14:18:38;8.95;;;4.15;;
48161;SDS011;33950;48.154;16.316;2022-11-11T14:21:45;12.20;;;4.50;;
48161;SDS011;33950;48.154;16.316;2022-11-11T14:24:35;8.75;;;4.50;;
48161;SDS011;33950;48.154;16.316;2022-11-11T14:27:24;10.00;;;4.20;;
48161;SDS011;33950;48.154;16.316;2022-11-11T14:30:26;14.27;;;5.03;;
48161;SDS011;33950;48.154;16.316;2022-11-11T14:36:36;9.27;;;5.40;;
48161;SDS011;33950;48.154;16.316;2022-11-11T14:39:32;12.95;;;5.50;;
48161;SDS011;33950;48.154;16.316;2022-11-11T14:48:55;11.40;;;5.43;;
48161;SDS011;33950;48.154;16.316;2022-11-11T14:51:47;11.90;;;6.05;;
48161;SDS011;33950;48.154;16.316;2022-11-11T14:57:32;14.77;;;4.82;;
48161;SDS011;33950;48.154;16.316;2022-11-11T15:00:25;10.00;;;4.97;;
48161;SDS011;33950;48.154;16.316;2022-11-11T15:03:13;8.55;;;3.78;;
48161;SDS011;33950;48.154;16.316;2022-11-11T15:06:11;13.35;;;4.13;;
48161;SDS011;33950;48.154;16.316;2022-11-11T15:09:02;6.85;;;3.88;;
48161;SDS011;33950;48.154;16.316;2022-11-11T15:12:00;13.32;;;4.03;;
48161;SDS011;33950;48.154;16.316;2022-11-11T15:17:44;13.90;;;3.97;;
48161;SDS011;33950;48.154;16.316;2022-11-11T15:20:48;8.90;;;5.00;;
48161;SDS011;33950;48.154;16.316;2022-11-11T15:23:46;14.43;;;6.60;;
48161;SDS011;33950;48.154;16.316;2022-11-11T15:26:39;11.60;;;5.07;;
48161;SDS011;33950;48.154;16.316;2022-11-11T15:29:49;10.85;;;4.75;;
48161;SDS011;33950;48.154;16.316;2022-11-11T15:32:50;10.35;;;4.43;;
48161;SDS011;33950;48.154;16.316;2022-11-11T15:35:49;11.88;;;5.05;;
48161;SDS011;33950;48.154;16.316;2022-11-11T15:38:40;10.90;;;4.63;;
48161;SDS011;33950;48.154;16.316;2022-11-11T15:41:30;12.50;;;4.63;;
48161;SDS011;33950;48.154;16.316;2022-11-11T15:44:21;9.73;;;4.90;;
48161;SDS011;33950;48.154;16.316;2022-11-11T15:47:12;17.42;;;5.15;;
48161;SDS011;33950;48.154;16.316;2022-11-11T15:49:59;19.10;;;5.35;;
48161;SDS011;33950;48.154;16.316;2022-11-11T15:52:46;9.90;;;4.65;;
48161;SDS011;33950;48.154;16.316;2022-11-11T15:58:26;23.02;;;7.30;;
48161;SDS011;33950;48.154;16.316;2022-11-11T16:01:14;15.02;;;6.85;;
48161;SDS011;33950;48.154;16.316;2022-11-11T16:04:01;21.48;;;6.45;;
48161;SDS011;33950;48.154;16.316;2022-11-11T16:06:52;19.52;;;6.75;;
48161;SDS011;33950;48.154;16.316;2022-11-11T16:09:38;11.10;;;6.57;;
48161;SDS011;33950;48.154;16.316;2022-11-11T16:12:25;15.18;;;6.30;;
48161;SDS011;33950;48.154;16.316;2022-11-11T16:15:19;19.30;;;7.65;;
48161;SDS011;33950;48.154;16.316;2022-11-11T16:18:12;20.10;;;7.78;;
48161;SDS011;33950;48.154;16.316;2022-11-11T16:21:03;22.17;;;7.50;;
48161;SDS011;33950;48.154;16.316;2022-11-11T16:23:55;24.77;;;7.60;;
48161;SDS011;33950;48.154;16.316;2022-11-11T16:26:43;20.85;;;9.18;;
48161;SDS011;33950;48.154;16.316;2022-11-11T16:29:32;24.40;;;7.43;;
48161;SDS011;33950;48.154;16.316;2022-11-11T16:32:48;22.15;;;7.95;;
48161;SDS011;33950;48.154;16.316;2022-11-11T16:35:42;25.30;;;10.85;;
48161;SDS011;33950;48.154;16.316;2022-11-11T16:38:39;22.27;;;10.02;;
48161;SDS011;33950;48.154;16.316;2022-11-11T16:41:34;30.52;;;13.02;;
48161;SDS011;33950;48.154;16.316;2022-11-11T16:44:34;33.15;;;16.17;;
48161;SDS011;33950;48.154;16.316;2022-11-11T16:53:45;20.58;;;7.57;;
48161;SDS011;33950;48.154;16.316;2022-11-11T16:56:50;15.07;;;7.28;;
48161;SDS011;33950;48.154;16.316;2022-11-11T16:59:46;13.55;;;5.95;;
48161;SDS011;33950;48.154;16.316;2022-11-11T17:16:21;74.57;;;30.77;;
48161;SDS011;33950;48.154;16.316;2022-11-11T17:25:43;62.92;;;25.23;;
48161;SDS011;33950;48.154;16.316;2022-11-11T17:28:32;45.90;;;21.20;;